sensor_id;sensor_type;location;lat;lon;timestamp;P1;durP1;ratioP1;P2;durP2;ratioP2
34585;SDS011;20816;50.950;11.108;2023-04-05T00:01:59;1.27;;;0.80;;
34585;SDS011;20816;50.950;11.108;2023-04-05T00:04:26;1.53;;;0.53;;
34585;SDS011;20816;50.950;11.108;2023-04-05T00:06:54;1.03;;;0.80;;
34585;SDS011;20816;50.950;11.108;2023-04-05T00:09:22;1.10;;;0.60;;
34585;SDS011;20816;50.950;11.108;2023-04-05T00:11:49;2.13;;;1.60;;
34585;SDS011;20816;50.950;11.108;2023-04-05T00:14:16;1.30;;;1.17;;
34585;SDS011;20816;50.950;11.108;2023-04-05T00:16:43;0.80;;;0.80;;
34585;SDS011;20816;50.950;11.108;2023-04-05T00:19:10;6.40;;;1.03;;
34585;SDS011;20816;50.950;11.108;2023-04-05T00:21:38;0.70;;;0.70;;
34585;SDS011;20816;50.950;11.108;2023-04-05T00:24:05;0.80;;;0.80;;
34585;SDS011;20816;50.950;11.108;2023-04-05T00:26:33;2.33;;;0.87;;
34585;SDS011;20816;50.950;11.108;2023-04-05T00:29:01;1.23;;;0.60;;
34585;SDS011;20816;50.950;11.108;2023-04-05T00:31:28;0.20;;;0.20;;
34585;SDS011;20816;50.950;11.108;2023-04-05T00:33:55;1.33;;;0.83;;
34585;SDS011;20816;50.950;11.108;2023-04-05T00:36:22;1.53;;;0.90;;
34585;SDS011;20816;50.950;11.108;2023-04-05T00:38:49;5.43;;;0.90;;
34585;SDS011;20816;50.950;11.108;2023-04-05T00:41:15;1.33;;;0.90;;
34585;SDS011;20816;50.950;11.108;2023-04-05T00:43:42;1.60;;;0.70;;
34585;SDS011;20816;50.950;11.108;2023-04-05T00:46:09;1.63;;;1.17;;
34585;SDS011;20816;50.950;11.108;2023-04-05T00:48:36;1.33;;;0.63;;
34585;SDS011;20816;50.950;11.108;2023-04-05T00:51:04;1.67;;;0.73;;
34585;SDS011;20816;50.950;11.108;2023-04-05T00:53:34;1.03;;;0.63;;
34585;SDS011;20816;50.950;11.108;2023-04-05T00:56:03;0.47;;;0.47;;
34585;SDS011;20816;50.950;11.108;2023-04-05T00:58:30;1.77;;;0.80;;
34585;SDS011;20816;50.950;11.108;2023-04-05T01:00:59;0.73;;;0.57;;
34585;SDS011;20816;50.950;11.108;2023-04-05T01:03:33;3.27;;;1.30;;
34585;SDS011;20816;50.950;11.108;2023-04-05T01:09:04;0.53;;;0.53;;
34585;SDS011;20816;50.950;11.108;2023-04-05T01:11:34;1.30;;;0.70;;
34585;SDS011;20816;50.950;11.108;2023-04-05T01:14:03;0.30;;;0.30;;
34585;SDS011;20816;50.950;11.108;2023-04-05T01:16:30;0.93;;;0.47;;
34585;SDS011;20816;50.950;11.108;2023-04-05T01:18:57;4.03;;;0.50;;
34585;SDS011;20816;50.950;11.108;2023-04-05T01:21:38;1.20;;;1.10;;
34585;SDS011;20816;50.950;11.108;2023-04-05T01:27:13;0.67;;;0.57;;
34585;SDS011;20816;50.950;11.108;2023-04-05T01:30:03;0.63;;;0.53;;
34585;SDS011;20816;50.950;11.108;2023-04-05T01:35:45;3.03;;;0.57;;
34585;SDS011;20816;50.950;11.108;2023-04-05T01:38:18;1.23;;;1.13;;
34585;SDS011;20816;50.950;11.108;2023-04-05T01:40:51;1.97;;;0.80;;
34585;SDS011;20816;50.950;11.108;2023-04-05T01:43:18;3.70;;;0.90;;
34585;SDS011;20816;50.950;11.108;2023-04-05T01:45:45;0.93;;;0.67;;
34585;SDS011;20816;50.950;11.108;2023-04-05T01:48:13;0.87;;;0.87;;
34585;SDS011;20816;50.950;11.108;2023-04-05T01:50:41;3.13;;;0.40;;
34585;SDS011;20816;50.950;11.108;2023-04-05T01:53:08;1.50;;;1.03;;
34585;SDS011;20816;50.950;11.108;2023-04-05T01:55:34;0.70;;;0.70;;
34585;SDS011;20816;50.950;11.108;2023-04-05T01:58:01;1.40;;;1.23;;
34585;SDS011;20816;50.950;11.108;2023-04-05T02:00:28;0.60;;;0.60;;
34585;SDS011;20816;50.950;11.108;2023-04-05T02:02:55;2.43;;;0.80;;
34585;SDS011;20816;50.950;11.108;2023-04-05T02:05:21;0.53;;;0.50;;
34585;SDS011;20816;50.950;11.108;2023-04-05T02:07:48;1.63;;;1.30;;
34585;SDS011;20816;50.950;11.108;2023-04-05T02:10:14;1.00;;;0.53;;
34585;SDS011;20816;50.950;11.108;2023-04-05T02:12:41;0.83;;;0.77;;
34585;SDS011;20816;50.950;11.108;2023-04-05T02:15:08;0.90;;;0.80;;
34585;SDS011;20816;50.950;11.108;2023-04-05T02:17:35;4.57;;;1.13;;
34585;SDS011;20816;50.950;11.108;2023-04-05T02:20:08;6.20;;;1.10;;
34585;SDS011;20816;50.950;11.108;2023-04-05T02:22:37;1.87;;;0.97;;
34585;SDS011;20816;50.950;11.108;2023-04-05T02:25:06;0.60;;;0.60;;
34585;SDS011;20816;50.950;11.108;2023-04-05T02:27:36;0.40;;;0.40;;
34585;SDS011;20816;50.950;11.108;2023-04-05T02:30:03;1.20;;;0.60;;
34585;SDS011;20816;50.950;11.108;2023-04-05T02:32:30;2.73;;;0.97;;
34585;SDS011;20816;50.950;11.108;2023-04-05T02:34:57;1.20;;;0.73;;
34585;SDS011;20816;50.950;11.108;2023-04-05T02:37:24;2.17;;;0.97;;
34585;SDS011;20816;50.950;11.108;2023-04-05T02:39:53;1.23;;;0.90;;
34585;SDS011;20816;50.950;11.108;2023-04-05T02:42:20;4.60;;;1.30;;
34585;SDS011;20816;50.950;11.108;2023-04-05T02:44:47;6.53;;;0.80;;
34585;SDS011;20816;50.950;11.108;2023-04-05T02:47:14;0.63;;;0.50;;
34585;SDS011;20816;50.950;11.108;2023-04-05T02:49:47;0.60;;;0.60;;
34585;SDS011;20816;50.950;11.108;2023-04-05T02:52:14;3.40;;;0.80;;
34585;SDS011;20816;50.950;11.108;2023-04-05T02:54:42;1.90;;;1.20;;
34585;SDS011;20816;50.950;11.108;2023-04-05T02:57:09;0.50;;;0.50;;
34585;SDS011;20816;50.950;11.108;2023-04-05T02:59:37;2.10;;;1.00;;
34585;SDS011;20816;50.950;11.108;2023-04-05T03:02:05;3.17;;;0.80;;
34585;SDS011;20816;50.950;11.108;2023-04-05T03:04:32;1.00;;;0.90;;
34585;SDS011;20816;50.950;11.108;2023-04-05T03:07:02;1.43;;;0.70;;
34585;SDS011;20816;50.950;11.108;2023-04-05T03:09:30;1.23;;;0.83;;
34585;SDS011;20816;50.950;11.108;2023-04-05T03:12:00;0.70;;;0.50;;
34585;SDS011;20816;50.950;11.108;2023-04-05T03:14:27;1.50;;;0.70;;
34585;SDS011;20816;50.950;11.108;2023-04-05T03:16:54;1.37;;;1.27;;
34585;SDS011;20816;50.950;11.108;2023-04-05T03:19:21;1.20;;;0.80;;
34585;SDS011;20816;50.950;11.108;2023-04-05T03:21:47;1.60;;;1.10;;
34585;SDS011;20816;50.950;11.108;2023-04-05T03:24:14;3.50;;;1.10;;
34585;SDS011;20816;50.950;11.108;2023-04-05T03:26:45;7.77;;;1.57;;
34585;SDS011;20816;50.950;11.108;2023-04-05T03:29:14;1.10;;;1.00;;
34585;SDS011;20816;50.950;11.108;2023-04-05T03:31:41;1.50;;;1.03;;
34585;SDS011;20816;50.950;11.108;2023-04-05T03:34:08;2.13;;;1.20;;
34585;SDS011;20816;50.950;11.108;2023-04-05T03:36:35;1.23;;;1.00;;
34585;SDS011;20816;50.950;11.108;2023-04-05T03:39:08;0.60;;;0.43;;
34585;SDS011;20816;50.950;11.108;2023-04-05T03:41:36;6.00;;;0.97;;
34585;SDS011;20816;50.950;11.108;2023-04-05T03:44:03;0.80;;;0.80;;
34585;SDS011;20816;50.950;11.108;2023-04-05T03:46:30;1.73;;;1.47;;
34585;SDS011;20816;50.950;11.108;2023-04-05T03:48:58;0.90;;;0.90;;
34585;SDS011;20816;50.950;11.108;2023-04-05T03:51:25;0.60;;;0.30;;
34585;SDS011;20816;50.950;11.108;2023-04-05T03:53:52;2.40;;;2.20;;
34585;SDS011;20816;50.950;11.108;2023-04-05T03:56:19;0.80;;;0.80;;
34585;SDS011;20816;50.950;11.108;2023-04-05T03:58:46;0.47;;;0.47;;
34585;SDS011;20816;50.950;11.108;2023-04-05T04:01:13;2.30;;;0.93;;
34585;SDS011;20816;50.950;11.108;2023-04-05T04:03:40;2.97;;;0.53;;
34585;SDS011;20816;50.950;11.108;2023-04-05T04:06:07;1.10;;;0.60;;
34585;SDS011;20816;50.950;11.108;2023-04-05T04:08:34;2.50;;;0.97;;
34585;SDS011;20816;50.950;11.108;2023-04-05T04:11:01;0.33;;;0.33;;
34585;SDS011;20816;50.950;11.108;2023-04-05T04:13:28;1.70;;;1.13;;
34585;SDS011;20816;50.950;11.108;2023-04-05T04:15:54;0.77;;;0.57;;
34585;SDS011;20816;50.950;11.108;2023-04-05T04:18:21;0.57;;;0.50;;
34585;SDS011;20816;50.950;11.108;2023-04-05T04:20:48;0.83;;;0.83;;
34585;SDS011;20816;50.950;11.108;2023-04-05T04:23:14;0.60;;;0.60;;
34585;SDS011;20816;50.950;11.108;2023-04-05T04:25:42;1.57;;;1.20;;
34585;SDS011;20816;50.950;11.108;2023-04-05T04:28:11;0.63;;;0.60;;
34585;SDS011;20816;50.950;11.108;2023-04-05T04:30:38;1.03;;;0.73;;
34585;SDS011;20816;50.950;11.108;2023-04-05T04:33:08;2.27;;;1.20;;
34585;SDS011;20816;50.950;11.108;2023-04-05T04:35:35;1.83;;;0.73;;
34585;SDS011;20816;50.950;11.108;2023-04-05T04:38:08;0.80;;;0.73;;
34585;SDS011;20816;50.950;11.108;2023-04-05T04:40:35;3.23;;;0.77;;
34585;SDS011;20816;50.950;11.108;2023-04-05T04:43:08;1.80;;;1.70;;
34585;SDS011;20816;50.950;11.108;2023-04-05T04:45:40;0.80;;;0.77;;
34585;SDS011;20816;50.950;11.108;2023-04-05T04:48:07;1.97;;;1.13;;
34585;SDS011;20816;50.950;11.108;2023-04-05T04:50:33;1.13;;;0.73;;
34585;SDS011;20816;50.950;11.108;2023-04-05T04:53:01;5.47;;;0.97;;
34585;SDS011;20816;50.950;11.108;2023-04-05T04:55:27;0.63;;;0.63;;
34585;SDS011;20816;50.950;11.108;2023-04-05T04:57:55;1.07;;;0.93;;
34585;SDS011;20816;50.950;11.108;2023-04-05T05:00:22;2.13;;;1.97;;
34585;SDS011;20816;50.950;11.108;2023-04-05T05:02:50;1.47;;;0.93;;
34585;SDS011;20816;50.950;11.108;2023-04-05T05:05:18;2.50;;;1.10;;
34585;SDS011;20816;50.950;11.108;2023-04-05T05:07:48;1.13;;;0.93;;
34585;SDS011;20816;50.950;11.108;2023-04-05T05:10:16;0.87;;;0.87;;
34585;SDS011;20816;50.950;11.108;2023-04-05T05:12:44;1.63;;;1.53;;
34585;SDS011;20816;50.950;11.108;2023-04-05T05:15:11;1.13;;;0.93;;
34585;SDS011;20816;50.950;11.108;2023-04-05T05:17:38;0.70;;;0.70;;
34585;SDS011;20816;50.950;11.108;2023-04-05T05:20:05;5.13;;;1.10;;
34585;SDS011;20816;50.950;11.108;2023-04-05T05:22:37;1.43;;;1.13;;
34585;SDS011;20816;50.950;11.108;2023-04-05T05:25:04;1.27;;;0.73;;
34585;SDS011;20816;50.950;11.108;2023-04-05T05:27:32;2.03;;;1.00;;
34585;SDS011;20816;50.950;11.108;2023-04-05T05:30:02;1.37;;;0.90;;
34585;SDS011;20816;50.950;11.108;2023-04-05T05:32:29;2.77;;;1.40;;
34585;SDS011;20816;50.950;11.108;2023-04-05T05:34:56;1.67;;;1.57;;
34585;SDS011;20816;50.950;11.108;2023-04-05T05:37:29;4.30;;;1.77;;
34585;SDS011;20816;50.950;11.108;2023-04-05T05:39:57;4.37;;;2.47;;
34585;SDS011;20816;50.950;11.108;2023-04-05T05:42:25;3.53;;;2.43;;
34585;SDS011;20816;50.950;11.108;2023-04-05T05:44:52;2.57;;;1.30;;
34585;SDS011;20816;50.950;11.108;2023-04-05T05:47:19;1.27;;;0.93;;
34585;SDS011;20816;50.950;11.108;2023-04-05T05:49:46;4.57;;;1.23;;
34585;SDS011;20816;50.950;11.108;2023-04-05T05:52:15;2.83;;;1.80;;
34585;SDS011;20816;50.950;11.108;2023-04-05T05:54:42;1.83;;;1.50;;
34585;SDS011;20816;50.950;11.108;2023-04-05T05:57:08;2.90;;;0.77;;
34585;SDS011;20816;50.950;11.108;2023-04-05T05:59:35;1.30;;;1.20;;
34585;SDS011;20816;50.950;11.108;2023-04-05T06:02:02;5.23;;;1.43;;
34585;SDS011;20816;50.950;11.108;2023-04-05T06:04:29;1.53;;;1.13;;
34585;SDS011;20816;50.950;11.108;2023-04-05T06:06:56;1.33;;;1.23;;
34585;SDS011;20816;50.950;11.108;2023-04-05T06:09:23;2.57;;;1.43;;
34585;SDS011;20816;50.950;11.108;2023-04-05T06:11:51;3.00;;;1.77;;
34585;SDS011;20816;50.950;11.108;2023-04-05T06:14:22;1.57;;;1.33;;
34585;SDS011;20816;50.950;11.108;2023-04-05T06:16:49;0.73;;;0.73;;
34585;SDS011;20816;50.950;11.108;2023-04-05T06:19:16;1.43;;;0.97;;
34585;SDS011;20816;50.950;11.108;2023-04-05T06:21:43;4.00;;;1.73;;
34585;SDS011;20816;50.950;11.108;2023-04-05T06:24:09;1.93;;;1.07;;
34585;SDS011;20816;50.950;11.108;2023-04-05T06:26:36;1.27;;;1.10;;
34585;SDS011;20816;50.950;11.108;2023-04-05T06:29:03;2.80;;;1.83;;
34585;SDS011;20816;50.950;11.108;2023-04-05T06:31:30;2.23;;;1.40;;
34585;SDS011;20816;50.950;11.108;2023-04-05T06:33:58;2.73;;;1.43;;
34585;SDS011;20816;50.950;11.108;2023-04-05T06:36:26;1.60;;;1.33;;
34585;SDS011;20816;50.950;11.108;2023-04-05T06:38:53;4.97;;;1.10;;
34585;SDS011;20816;50.950;11.108;2023-04-05T06:41:19;1.63;;;1.43;;
34585;SDS011;20816;50.950;11.108;2023-04-05T06:43:46;1.77;;;1.40;;
34585;SDS011;20816;50.950;11.108;2023-04-05T06:46:13;3.37;;;1.40;;
34585;SDS011;20816;50.950;11.108;2023-04-05T06:48:40;2.53;;;1.37;;
34585;SDS011;20816;50.950;11.108;2023-04-05T06:51:07;10.57;;;1.80;;
34585;SDS011;20816;50.950;11.108;2023-04-05T06:53:34;4.83;;;2.10;;
34585;SDS011;20816;50.950;11.108;2023-04-05T06:56:00;2.87;;;2.27;;
34585;SDS011;20816;50.950;11.108;2023-04-05T06:58:27;4.33;;;1.60;;
34585;SDS011;20816;50.950;11.108;2023-04-05T07:00:54;2.47;;;1.77;;
34585;SDS011;20816;50.950;11.108;2023-04-05T07:03:21;2.83;;;1.43;;
34585;SDS011;20816;50.950;11.108;2023-04-05T07:05:55;5.50;;;2.23;;
34585;SDS011;20816;50.950;11.108;2023-04-05T07:08:25;3.50;;;2.27;;
34585;SDS011;20816;50.950;11.108;2023-04-05T07:10:52;2.73;;;2.20;;
34585;SDS011;20816;50.950;11.108;2023-04-05T07:13:20;5.93;;;2.70;;
34585;SDS011;20816;50.950;11.108;2023-04-05T07:15:48;2.60;;;1.70;;
34585;SDS011;20816;50.950;11.108;2023-04-05T07:18:15;4.37;;;2.60;;
34585;SDS011;20816;50.950;11.108;2023-04-05T07:20:43;4.57;;;3.43;;
34585;SDS011;20816;50.950;11.108;2023-04-05T07:23:12;4.60;;;2.53;;
34585;SDS011;20816;50.950;11.108;2023-04-05T07:25:38;3.87;;;2.00;;
34585;SDS011;20816;50.950;11.108;2023-04-05T07:28:06;2.13;;;1.73;;
34585;SDS011;20816;50.950;11.108;2023-04-05T07:30:33;5.03;;;2.13;;
34585;SDS011;20816;50.950;11.108;2023-04-05T07:33:01;2.90;;;2.13;;
34585;SDS011;20816;50.950;11.108;2023-04-05T07:35:28;5.87;;;2.53;;
34585;SDS011;20816;50.950;11.108;2023-04-05T07:37:55;1.73;;;1.40;;
34585;SDS011;20816;50.950;11.108;2023-04-05T07:40:22;2.53;;;1.60;;
34585;SDS011;20816;50.950;11.108;2023-04-05T07:42:48;3.77;;;2.20;;
34585;SDS011;20816;50.950;11.108;2023-04-05T07:45:15;3.13;;;2.53;;
34585;SDS011;20816;50.950;11.108;2023-04-05T07:47:42;4.70;;;2.23;;
34585;SDS011;20816;50.950;11.108;2023-04-05T07:50:08;2.17;;;1.73;;
34585;SDS011;20816;50.950;11.108;2023-04-05T07:52:37;4.77;;;2.10;;
34585;SDS011;20816;50.950;11.108;2023-04-05T07:55:04;3.83;;;1.90;;
34585;SDS011;20816;50.950;11.108;2023-04-05T07:57:31;2.97;;;2.67;;
34585;SDS011;20816;50.950;11.108;2023-04-05T07:59:58;12.83;;;2.43;;
34585;SDS011;20816;50.950;11.108;2023-04-05T08:02:24;2.73;;;1.97;;
34585;SDS011;20816;50.950;11.108;2023-04-05T08:04:51;5.03;;;2.70;;
34585;SDS011;20816;50.950;11.108;2023-04-05T08:07:18;4.70;;;2.20;;
34585;SDS011;20816;50.950;11.108;2023-04-05T08:09:44;2.90;;;1.80;;
34585;SDS011;20816;50.950;11.108;2023-04-05T08:12:11;2.13;;;1.67;;
34585;SDS011;20816;50.950;11.108;2023-04-05T08:14:38;5.63;;;2.60;;
34585;SDS011;20816;50.950;11.108;2023-04-05T08:17:04;3.73;;;2.20;;
34585;SDS011;20816;50.950;11.108;2023-04-05T08:19:31;4.90;;;1.80;;
34585;SDS011;20816;50.950;11.108;2023-04-05T08:21:58;2.90;;;1.63;;
34585;SDS011;20816;50.950;11.108;2023-04-05T08:24:24;2.10;;;1.30;;
34585;SDS011;20816;50.950;11.108;2023-04-05T08:26:51;2.27;;;1.53;;
34585;SDS011;20816;50.950;11.108;2023-04-05T08:29:18;4.20;;;1.70;;
34585;SDS011;20816;50.950;11.108;2023-04-05T08:31:44;7.40;;;1.37;;
34585;SDS011;20816;50.950;11.108;2023-04-05T08:34:11;4.67;;;1.90;;
34585;SDS011;20816;50.950;11.108;2023-04-05T08:36:38;6.13;;;1.73;;
34585;SDS011;20816;50.950;11.108;2023-04-05T08:39:04;3.83;;;1.60;;
34585;SDS011;20816;50.950;11.108;2023-04-05T08:41:35;7.23;;;1.70;;
34585;SDS011;20816;50.950;11.108;2023-04-05T08:44:08;9.83;;;2.00;;
34585;SDS011;20816;50.950;11.108;2023-04-05T08:46:35;2.03;;;1.30;;
34585;SDS011;20816;50.950;11.108;2023-04-05T08:49:06;2.90;;;1.53;;
34585;SDS011;20816;50.950;11.108;2023-04-05T08:51:37;9.40;;;1.47;;
34585;SDS011;20816;50.950;11.108;2023-04-05T08:54:06;1.57;;;1.37;;
34585;SDS011;20816;50.950;11.108;2023-04-05T08:56:34;3.10;;;1.47;;
34585;SDS011;20816;50.950;11.108;2023-04-05T08:59:02;2.13;;;1.33;;
34585;SDS011;20816;50.950;11.108;2023-04-05T09:01:31;2.73;;;1.40;;
34585;SDS011;20816;50.950;11.108;2023-04-05T09:04:05;6.90;;;1.70;;
34585;SDS011;20816;50.950;11.108;2023-04-05T09:06:35;2.93;;;1.73;;
34585;SDS011;20816;50.950;11.108;2023-04-05T09:09:04;3.60;;;1.43;;
34585;SDS011;20816;50.950;11.108;2023-04-05T09:11:33;3.47;;;1.43;;
34585;SDS011;20816;50.950;11.108;2023-04-05T09:14:01;3.80;;;2.07;;
34585;SDS011;20816;50.950;11.108;2023-04-05T09:16:32;1.90;;;1.70;;
34585;SDS011;20816;50.950;11.108;2023-04-05T09:19:02;2.20;;;1.77;;
34585;SDS011;20816;50.950;11.108;2023-04-05T09:21:29;1.90;;;1.60;;
34585;SDS011;20816;50.950;11.108;2023-04-05T09:23:56;1.80;;;1.40;;
34585;SDS011;20816;50.950;11.108;2023-04-05T09:26:23;4.37;;;2.03;;
34585;SDS011;20816;50.950;11.108;2023-04-05T09:28:51;3.07;;;1.10;;
34585;SDS011;20816;50.950;11.108;2023-04-05T09:31:30;2.73;;;1.50;;
34585;SDS011;20816;50.950;11.108;2023-04-05T09:34:00;2.23;;;1.33;;
34585;SDS011;20816;50.950;11.108;2023-04-05T09:36:29;2.40;;;1.20;;
34585;SDS011;20816;50.950;11.108;2023-04-05T09:39:04;8.40;;;2.00;;
34585;SDS011;20816;50.950;11.108;2023-04-05T09:41:32;3.00;;;1.53;;
34585;SDS011;20816;50.950;11.108;2023-04-05T09:44:00;3.90;;;2.30;;
34585;SDS011;20816;50.950;11.108;2023-04-05T09:48:59;5.70;;;2.30;;
34585;SDS011;20816;50.950;11.108;2023-04-05T09:51:33;2.77;;;1.67;;
34585;SDS011;20816;50.950;11.108;2023-04-05T09:56:33;1.17;;;1.03;;
34585;SDS011;20816;50.950;11.108;2023-04-05T09:59:01;4.07;;;1.90;;
34585;SDS011;20816;50.950;11.108;2023-04-05T10:01:32;1.97;;;1.10;;
34585;SDS011;20816;50.950;11.108;2023-04-05T10:03:59;1.87;;;1.47;;
34585;SDS011;20816;50.950;11.108;2023-04-05T10:06:39;1.83;;;1.40;;
34585;SDS011;20816;50.950;11.108;2023-04-05T10:09:09;1.23;;;1.00;;
34585;SDS011;20816;50.950;11.108;2023-04-05T10:11:37;1.77;;;1.20;;
34585;SDS011;20816;50.950;11.108;2023-04-05T10:14:05;2.07;;;1.37;;
34585;SDS011;20816;50.950;11.108;2023-04-05T10:19:25;1.30;;;1.00;;
34585;SDS011;20816;50.950;11.108;2023-04-05T10:21:59;1.60;;;1.20;;
34585;SDS011;20816;50.950;11.108;2023-04-05T10:24:36;2.43;;;1.30;;
34585;SDS011;20816;50.950;11.108;2023-04-05T10:30:12;3.33;;;1.73;;
34585;SDS011;20816;50.950;11.108;2023-04-05T10:40:35;1.63;;;1.30;;
34585;SDS011;20816;50.950;11.108;2023-04-05T10:43:03;2.53;;;1.33;;
34585;SDS011;20816;50.950;11.108;2023-04-05T10:45:39;1.43;;;1.33;;
34585;SDS011;20816;50.950;11.108;2023-04-05T10:48:14;1.80;;;1.63;;
34585;SDS011;20816;50.950;11.108;2023-04-05T10:50:46;2.80;;;1.60;;
34585;SDS011;20816;50.950;11.108;2023-04-05T10:53:14;2.07;;;1.47;;
34585;SDS011;20816;50.950;11.108;2023-04-05T10:55:44;1.47;;;1.13;;
34585;SDS011;20816;50.950;11.108;2023-04-05T10:58:12;1.57;;;1.30;;
34585;SDS011;20816;50.950;11.108;2023-04-05T11:00:41;1.47;;;1.27;;
34585;SDS011;20816;50.950;11.108;2023-04-05T11:03:08;4.33;;;1.40;;
34585;SDS011;20816;50.950;11.108;2023-04-05T11:05:35;1.83;;;1.27;;
34585;SDS011;20816;50.950;11.108;2023-04-05T11:08:04;2.07;;;1.30;;
34585;SDS011;20816;50.950;11.108;2023-04-05T11:10:34;1.60;;;1.30;;
34585;SDS011;20816;50.950;11.108;2023-04-05T11:13:03;1.97;;;1.53;;
34585;SDS011;20816;50.950;11.108;2023-04-05T11:15:32;1.60;;;1.40;;
34585;SDS011;20816;50.950;11.108;2023-04-05T11:18:10;1.37;;;1.20;;
34585;SDS011;20816;50.950;11.108;2023-04-05T11:20:52;2.50;;;1.23;;
34585;SDS011;20816;50.950;11.108;2023-04-05T11:23:30;2.40;;;1.93;;
34585;SDS011;20816;50.950;11.108;2023-04-05T11:26:04;2.50;;;1.40;;
34585;SDS011;20816;50.950;11.108;2023-04-05T11:28:38;1.80;;;1.20;;
34585;SDS011;20816;50.950;11.108;2023-04-05T11:44:38;1.67;;;1.50;;
34585;SDS011;20816;50.950;11.108;2023-04-05T11:47:06;4.23;;;1.43;;
34585;SDS011;20816;50.950;11.108;2023-04-05T11:49:34;3.60;;;1.80;;
34585;SDS011;20816;50.950;11.108;2023-04-05T11:52:11;1.40;;;1.23;;
34585;SDS011;20816;50.950;11.108;2023-04-05T11:54:42;2.00;;;1.33;;
34585;SDS011;20816;50.950;11.108;2023-04-05T11:57:13;4.07;;;1.90;;
34585;SDS011;20816;50.950;11.108;2023-04-05T11:59:48;3.83;;;1.67;;
34585;SDS011;20816;50.950;11.108;2023-04-05T12:02:17;2.10;;;1.23;;
34585;SDS011;20816;50.950;11.108;2023-04-05T12:04:44;1.77;;;1.57;;
34585;SDS011;20816;50.950;11.108;2023-04-05T12:07:19;1.80;;;1.30;;
34585;SDS011;20816;50.950;11.108;2023-04-05T12:10:05;3.20;;;1.60;;
34585;SDS011;20816;50.950;11.108;2023-04-05T12:12:40;3.87;;;1.53;;
34585;SDS011;20816;50.950;11.108;2023-04-05T12:15:09;1.90;;;1.60;;
34585;SDS011;20816;50.950;11.108;2023-04-05T12:17:44;2.23;;;1.53;;
34585;SDS011;20816;50.950;11.108;2023-04-05T12:20:12;3.87;;;1.43;;
34585;SDS011;20816;50.950;11.108;2023-04-05T12:22:44;6.07;;;2.00;;
34585;SDS011;20816;50.950;11.108;2023-04-05T12:25:14;1.60;;;1.17;;
34585;SDS011;20816;50.950;11.108;2023-04-05T12:27:42;1.53;;;1.20;;
34585;SDS011;20816;50.950;11.108;2023-04-05T12:30:16;1.50;;;1.17;;
34585;SDS011;20816;50.950;11.108;2023-04-05T12:32:50;2.53;;;1.23;;
34585;SDS011;20816;50.950;11.108;2023-04-05T12:35:24;2.10;;;1.67;;
34585;SDS011;20816;50.950;11.108;2023-04-05T12:37:58;5.13;;;1.70;;
34585;SDS011;20816;50.950;11.108;2023-04-05T12:40:27;2.60;;;1.77;;
34585;SDS011;20816;50.950;11.108;2023-04-05T12:45:29;3.03;;;1.47;;
34585;SDS011;20816;50.950;11.108;2023-04-05T12:48:07;3.27;;;1.53;;
34585;SDS011;20816;50.950;11.108;2023-04-05T12:50:35;1.50;;;1.23;;
34585;SDS011;20816;50.950;11.108;2023-04-05T12:53:08;2.00;;;1.37;;
34585;SDS011;20816;50.950;11.108;2023-04-05T12:55:37;5.60;;;1.60;;
34585;SDS011;20816;50.950;11.108;2023-04-05T12:58:11;1.30;;;1.20;;
34585;SDS011;20816;50.950;11.108;2023-04-05T13:00:39;3.60;;;1.70;;
34585;SDS011;20816;50.950;11.108;2023-04-05T13:03:13;3.10;;;1.60;;
34585;SDS011;20816;50.950;11.108;2023-04-05T13:05:46;1.20;;;1.10;;
34585;SDS011;20816;50.950;11.108;2023-04-05T13:08:16;2.27;;;1.60;;
34585;SDS011;20816;50.950;11.108;2023-04-05T13:10:46;1.77;;;1.30;;
34585;SDS011;20816;50.950;11.108;2023-04-05T13:13:14;2.13;;;1.83;;
34585;SDS011;20816;50.950;11.108;2023-04-05T13:15:43;1.53;;;1.40;;
34585;SDS011;20816;50.950;11.108;2023-04-05T13:18:11;2.53;;;1.60;;
34585;SDS011;20816;50.950;11.108;2023-04-05T13:20:43;4.37;;;1.40;;
34585;SDS011;20816;50.950;11.108;2023-04-05T13:23:11;1.47;;;1.23;;
34585;SDS011;20816;50.950;11.108;2023-04-05T13:25:42;1.43;;;1.33;;
34585;SDS011;20816;50.950;11.108;2023-04-05T13:28:10;2.30;;;1.50;;
34585;SDS011;20816;50.950;11.108;2023-04-05T13:30:37;1.93;;;1.40;;
34585;SDS011;20816;50.950;11.108;2023-04-05T13:33:04;5.23;;;2.40;;
34585;SDS011;20816;50.950;11.108;2023-04-05T13:35:30;3.67;;;1.90;;
34585;SDS011;20816;50.950;11.108;2023-04-05T13:37:57;4.10;;;1.67;;
34585;SDS011;20816;50.950;11.108;2023-04-05T13:40:27;1.97;;;1.87;;
34585;SDS011;20816;50.950;11.108;2023-04-05T13:42:54;3.43;;;1.60;;
34585;SDS011;20816;50.950;11.108;2023-04-05T13:45:20;4.30;;;1.90;;
34585;SDS011;20816;50.950;11.108;2023-04-05T13:47:47;2.50;;;1.20;;
34585;SDS011;20816;50.950;11.108;2023-04-05T13:50:14;4.10;;;1.77;;
34585;SDS011;20816;50.950;11.108;2023-04-05T13:52:41;2.70;;;1.47;;
34585;SDS011;20816;50.950;11.108;2023-04-05T13:55:08;3.10;;;2.20;;
34585;SDS011;20816;50.950;11.108;2023-04-05T13:57:34;5.20;;;1.70;;
34585;SDS011;20816;50.950;11.108;2023-04-05T14:00:01;1.50;;;1.27;;
34585;SDS011;20816;50.950;11.108;2023-04-05T14:02:28;1.93;;;1.37;;
34585;SDS011;20816;50.950;11.108;2023-04-05T14:04:55;3.50;;;1.23;;
34585;SDS011;20816;50.950;11.108;2023-04-05T14:07:22;2.03;;;1.47;;
34585;SDS011;20816;50.950;11.108;2023-04-05T14:09:50;1.40;;;1.30;;
34585;SDS011;20816;50.950;11.108;2023-04-05T14:12:16;1.80;;;1.43;;
34585;SDS011;20816;50.950;11.108;2023-04-05T14:14:43;3.63;;;1.43;;
34585;SDS011;20816;50.950;11.108;2023-04-05T14:17:10;1.87;;;1.37;;
34585;SDS011;20816;50.950;11.108;2023-04-05T14:19:38;2.23;;;1.60;;
34585;SDS011;20816;50.950;11.108;2023-04-05T14:22:05;1.43;;;1.30;;
34585;SDS011;20816;50.950;11.108;2023-04-05T14:24:31;1.63;;;1.47;;
34585;SDS011;20816;50.950;11.108;2023-04-05T14:26:58;2.47;;;1.17;;
34585;SDS011;20816;50.950;11.108;2023-04-05T14:29:25;4.13;;;1.60;;
34585;SDS011;20816;50.950;11.108;2023-04-05T14:31:53;2.70;;;1.33;;
34585;SDS011;20816;50.950;11.108;2023-04-05T14:34:21;2.83;;;1.23;;
34585;SDS011;20816;50.950;11.108;2023-04-05T14:36:47;1.77;;;1.27;;
34585;SDS011;20816;50.950;11.108;2023-04-05T14:39:14;2.80;;;1.10;;
34585;SDS011;20816;50.950;11.108;2023-04-05T14:41:41;3.50;;;1.63;;
34585;SDS011;20816;50.950;11.108;2023-04-05T14:44:09;1.40;;;1.30;;
34585;SDS011;20816;50.950;11.108;2023-04-05T14:46:35;2.00;;;1.63;;
34585;SDS011;20816;50.950;11.108;2023-04-05T14:49:02;2.27;;;1.30;;
34585;SDS011;20816;50.950;11.108;2023-04-05T14:51:29;3.03;;;1.30;;
34585;SDS011;20816;50.950;11.108;2023-04-05T14:53:56;2.03;;;1.23;;
34585;SDS011;20816;50.950;11.108;2023-04-05T14:56:23;3.53;;;1.37;;
34585;SDS011;20816;50.950;11.108;2023-04-05T14:58:51;2.20;;;1.77;;
34585;SDS011;20816;50.950;11.108;2023-04-05T15:01:18;1.43;;;1.33;;
34585;SDS011;20816;50.950;11.108;2023-04-05T15:03:45;1.80;;;1.10;;
34585;SDS011;20816;50.950;11.108;2023-04-05T15:06:13;2.30;;;1.30;;
34585;SDS011;20816;50.950;11.108;2023-04-05T15:08:41;2.70;;;1.40;;
34585;SDS011;20816;50.950;11.108;2023-04-05T15:11:08;3.83;;;1.50;;
34585;SDS011;20816;50.950;11.108;2023-04-05T15:13:35;2.00;;;1.57;;
34585;SDS011;20816;50.950;11.108;2023-04-05T15:16:02;1.17;;;1.07;;
34585;SDS011;20816;50.950;11.108;2023-04-05T15:18:28;1.20;;;1.10;;
34585;SDS011;20816;50.950;11.108;2023-04-05T15:20:55;1.97;;;1.37;;
34585;SDS011;20816;50.950;11.108;2023-04-05T15:23:22;1.50;;;1.37;;
34585;SDS011;20816;50.950;11.108;2023-04-05T15:25:49;2.10;;;1.73;;